North New Portland, Maine
Current Conditions -  °F | °C
As of 9:55 PM on Friday 21 Nov 2014 (Local Time) from KWVL Reporting Station
Clear Clear  
Wind Chill:   Ceiling: Unl
Heat Index: 19°   Visibility: 10mi
Dew Point:   Wind: 8mph
Humidity: 46%   Direction: 260°W
Pressure: 30.25"   Gusts: NA
Location:  44.92°N, 70.02°W
Report Text: KWVL 220255Z 26007KT 10SM CLR M07/M17 A3025 RMK AO1 52017
Loading
Personal Weather Stations






























Interactive Weather Map New forecast layout! Learn more

10-Day Weather Forecast

Advertisements
Track Severe Weather on mobile